Gay, Georgia
Current Conditions -  °F | °C
As of 8:53 AM on Saturday 20 Dec 2014 (Local Time) from KFFC Reporting Station
Haze Haze  
Wind Chill: 44°   Ceiling: 400
Heat Index: 44°   Visibility: 3mi
Dew Point: 42°   Wind: 3mph
Humidity: 93%   Direction: 330°NNW
Pressure: 30.21"   Gusts: NA
Location:  33.09°N, 84.57°W
Report Text: KFFC 201353Z AUTO 33003KT 3SM BR BKN004 OVC055 07/06 A3021 RMK AO2 RAE1255 SLP232 P0000 T00670056
Loading
Personal Weather Stations






























Interactive Weather Map New forecast layout! Learn more

10-Day Weather Forecast

Advertisements
Track Severe Weather on mobile